createdAt,value
2022-08-11T00:01:07.606Z,102502.84
2022-08-11T00:03:43.440Z,102505.38
2022-08-11T00:06:14.056Z,102507.28
2022-08-11T00:08:42.409Z,102513.63
2022-08-11T00:11:10.181Z,102507.53
2022-08-11T00:13:46.904Z,102511.25
2022-08-11T00:16:20.719Z,102498.44
2022-08-11T00:18:53.558Z,102507.53
2022-08-11T00:21:32.503Z,102502.16
2022-08-11T00:24:09.064Z,102504.16
2022-08-11T00:26:36.821Z,102497.53
2022-08-11T00:29:12.965Z,102505.84
2022-08-11T00:31:46.137Z,102500.47
2022-08-11T00:34:12.548Z,102497.75
2022-08-11T00:36:50.803Z,102499.50
2022-08-11T00:39:20.487Z,102493.19
2022-08-11T00:42:10.807Z,102495.03
2022-08-11T00:45:17.688Z,102500.31
2022-08-11T00:48:04.090Z,102504.06
2022-08-11T00:50:42.733Z,102496.00
2022-08-11T00:53:31.509Z,102499.69
2022-08-11T00:56:23.609Z,102505.91
2022-08-11T00:59:34.365Z,102501.50
2022-08-11T01:01:57.658Z,102506.94
2022-08-11T01:04:46.230Z,102502.56
2022-08-11T01:08:03.008Z,102504.34
2022-08-11T01:10:41.973Z,102499.78
2022-08-11T01:13:15.599Z,102496.19
2022-08-11T01:16:11.684Z,102492.50
2022-08-11T01:18:53.578Z,102496.19
2022-08-11T01:21:58.030Z,102498.03
2022-08-11T01:24:45.508Z,102491.63
2022-08-11T01:27:33.499Z,102492.72
2022-08-11T01:30:40.749Z,102493.72
2022-08-11T01:33:38.545Z,102486.50
2022-08-11T01:36:35.698Z,102494.53
2022-08-11T01:39:26.992Z,102490.25
2022-08-11T01:42:41.708Z,102497.53
2022-08-11T01:45:24.049Z,102490.31
2022-08-11T01:48:03.084Z,102484.09
2022-08-11T01:50:55.255Z,102489.34
2022-08-11T01:53:40.153Z,102483.19
2022-08-11T01:56:37.443Z,102493.94
2022-08-11T01:59:10.189Z,102484.16
2022-08-11T02:01:37.326Z,102489.63
2022-08-11T02:04:33.797Z,102489.59
2022-08-11T02:07:21.744Z,102486.81
2022-08-11T02:10:25.746Z,102484.88
2022-08-11T02:13:42.448Z,102484.16
2022-08-11T02:16:27.186Z,102479.59
2022-08-11T02:19:35.440Z,102484.25
2022-08-11T02:22:25.220Z,102480.53
2022-08-11T02:25:02.270Z,102482.44
2022-08-11T02:28:03.585Z,102478.84
2022-08-11T02:30:35.207Z,102479.81
2022-08-11T02:33:23.192Z,102474.41
2022-08-11T02:36:06.687Z,102482.53
2022-08-11T02:38:33.035Z,102479.81
2022-08-11T02:41:37.897Z,102471.66
2022-08-11T02:44:26.846Z,102469.88
2022-08-11T02:47:24.993Z,102472.53
2022-08-11T02:50:07.501Z,102479.81
2022-08-11T02:52:45.469Z,102467.19
2022-08-11T02:55:57.597Z,102467.28
2022-08-11T02:58:30.633Z,102456.31
2022-08-11T03:01:06.686Z,102461.84
2022-08-11T03:04:11.166Z,102467.19
2022-08-11T03:06:46.723Z,102466.47
2022-08-11T03:09:36.024Z,102463.81
2022-08-11T03:12:28.281Z,102459.31
2022-08-11T03:15:18.352Z,102462.00
2022-08-11T03:18:12.177Z,102456.44
2022-08-11T03:21:09.404Z,102461.97
2022-08-11T03:24:03.802Z,102454.75
2022-08-11T03:26:43.404Z,102454.81
2022-08-11T03:29:25.158Z,102455.88
2022-08-11T03:32:14.888Z,102452.19
2022-08-11T03:34:44.187Z,102452.34
2022-08-11T03:37:51.806Z,102451.16
2022-08-11T03:40:38.267Z,102451.41
2022-08-11T03:43:11.372Z,102447.88
2022-08-11T03:45:56.393Z,102446.00
2022-08-11T03:48:50.017Z,102445.13
2022-08-11T03:51:30.604Z,102438.84
2022-08-11T03:54:20.414Z,102447.00
2022-08-11T03:56:52.965Z,102449.78
2022-08-11T03:59:59.660Z,102446.03
2022-08-11T04:02:53.448Z,102443.28
2022-08-11T04:05:31.760Z,102439.75
2022-08-11T04:08:04.128Z,102447.75
2022-08-11T04:10:59.688Z,102440.72
2022-08-11T04:14:29.562Z,102444.41
2022-08-11T04:17:35.650Z,102451.63
2022-08-11T04:20:20.947Z,102446.19
2022-08-11T04:22:55.209Z,102440.91
2022-08-11T04:25:31.013Z,102442.63
2022-08-11T04:28:00.546Z,102444.34
2022-08-11T04:30:52.877Z,102434.41
2022-08-11T04:33:41.797Z,102440.72
2022-08-11T04:36:09.679Z,102440.78
2022-08-11T04:39:05.870Z,102440.97
2022-08-11T04:42:12.557Z,102441.78
2022-08-11T04:44:42.198Z,102435.53
2022-08-11T04:47:11.615Z,102438.09
2022-08-11T04:50:02.883Z,102438.25
2022-08-11T04:53:01.683Z,102440.00
2022-08-11T04:56:05.817Z,102433.56
2022-08-11T04:59:06.254Z,102431.78
2022-08-11T05:01:43.319Z,102432.88
2022-08-11T05:04:32.451Z,102438.34
2022-08-11T05:07:34.458Z,102440.19
2022-08-11T05:10:30.177Z,102437.28
2022-08-11T05:13:21.440Z,102446.34
2022-08-11T05:16:22.832Z,102445.41
2022-08-11T05:19:10.904Z,102437.44
2022-08-11T05:21:58.667Z,102430.28
2022-08-11T05:24:49.398Z,102439.31
2022-08-11T05:27:34.988Z,102447.50
2022-08-11T05:30:24.014Z,102445.69
2022-08-11T05:33:23.523Z,102446.53
2022-08-11T05:36:02.294Z,102451.13
2022-08-11T05:38:51.458Z,102453.88
2022-08-11T05:41:42.193Z,102455.69
2022-08-11T05:44:28.826Z,102461.97
2022-08-11T05:47:14.081Z,102451.09
2022-08-11T05:49:59.629Z,102452.09
2022-08-11T05:52:49.283Z,102452.09
2022-08-11T05:55:58.367Z,102453.88
2022-08-11T05:58:43.238Z,102448.44
2022-08-11T06:01:12.427Z,102453.09
2022-08-11T06:04:05.528Z,102455.81
2022-08-11T06:06:32.401Z,102452.03
2022-08-11T06:08:59.365Z,102450.25
2022-08-11T06:11:42.926Z,102453.03
2022-08-11T06:14:11.694Z,102450.25
2022-08-11T06:16:38.448Z,102455.69
2022-08-11T06:19:05.994Z,102459.16
2022-08-11T06:21:36.251Z,102451.94
2022-08-11T06:24:12.356Z,102455.59
2022-08-11T06:27:08.754Z,102452.75
2022-08-11T06:29:38.275Z,102456.41
2022-08-11T06:32:15.579Z,102450.03
2022-08-11T06:35:07.851Z,102448.19
2022-08-11T06:37:43.526Z,102450.94
2022-08-11T06:40:28.044Z,102446.34
2022-08-11T06:43:12.218Z,102451.75
2022-08-11T06:45:53.658Z,102453.41
2022-08-11T06:48:23.094Z,102454.28
2022-08-11T06:51:13.703Z,102442.56
2022-08-11T06:54:03.548Z,102449.63
2022-08-11T06:57:28.394Z,102454.91
2022-08-11T07:00:01.445Z,102447.69
2022-08-11T07:02:54.052Z,102453.00
2022-08-11T07:05:31.319Z,102453.06
2022-08-11T07:08:44.497Z,102453.97
2022-08-11T07:11:57.692Z,102455.75
2022-08-11T07:14:45.687Z,102455.78
2022-08-11T07:17:17.432Z,102453.06
2022-08-11T07:20:16.143Z,102458.47
2022-08-11T07:23:11.756Z,102456.59
2022-08-11T07:25:58.843Z,102461.97
2022-08-11T07:28:45.464Z,102456.41
2022-08-11T07:31:14.997Z,102451.00
2022-08-11T07:34:07.268Z,102453.59
2022-08-11T07:36:35.190Z,102443.72
2022-08-11T07:39:02.613Z,102444.59
2022-08-11T07:41:32.803Z,102450.84
2022-08-11T07:44:09.162Z,102449.81
2022-08-11T07:47:14.392Z,102435.22
2022-08-11T07:50:03.148Z,102443.41
2022-08-11T07:52:34.106Z,102441.47
2022-08-11T07:55:05.864Z,102439.66
2022-08-11T07:58:16.395Z,102443.31
2022-08-11T08:01:03.890Z,102443.31
2022-08-11T08:03:57.015Z,102439.66
2022-08-11T08:06:42.541Z,102437.88
2022-08-11T08:09:28.323Z,102436.09
2022-08-11T08:12:14.575Z,102429.72
2022-08-11T08:15:01.134Z,102437.88
2022-08-11T08:18:20.400Z,102432.47
2022-08-11T08:20:37.519Z,102435.97
2022-08-11T08:23:04.957Z,102434.19
2022-08-11T08:25:33.960Z,102434.19
2022-08-11T08:28:02.766Z,102435.97
2022-08-11T08:30:48.136Z,102445.84
2022-08-11T08:33:21.380Z,102441.13
2022-08-11T08:35:55.890Z,102439.25
2022-08-11T08:38:23.231Z,102439.34
2022-08-11T08:40:54.760Z,102441.91
2022-08-11T08:43:23.917Z,102433.75
2022-08-11T08:45:55.451Z,102444.56
2022-08-11T08:48:24.039Z,102439.25
2022-08-11T08:51:12.702Z,102436.34
2022-08-11T08:53:52.238Z,102439.06
2022-08-11T08:56:28.167Z,102441.63
2022-08-11T08:58:56.483Z,102440.56
2022-08-11T09:01:25.363Z,102437.00
2022-08-11T09:04:04.650Z,102438.88
2022-08-11T09:06:50.034Z,102446.09
2022-08-11T09:09:20.732Z,102436.81
2022-08-11T09:11:51.332Z,102436.75
2022-08-11T09:14:19.405Z,102433.19
2022-08-11T09:16:47.091Z,102435.88
2022-08-11T09:19:17.523Z,102433.19
2022-08-11T09:22:07.475Z,102442.06
2022-08-11T09:24:54.610Z,102445.63
2022-08-11T09:27:22.456Z,102438.34
2022-08-11T09:29:49.415Z,102438.25
2022-08-11T09:32:20.148Z,102441.00
2022-08-11T09:34:47.188Z,102432.81
2022-08-11T09:37:54.687Z,102436.28
2022-08-11T09:40:32.379Z,102437.13
2022-08-11T09:43:20.286Z,102430.78
2022-08-11T09:45:51.579Z,102436.91
2022-08-11T09:48:23.765Z,102425.97
2022-08-11T09:50:52.432Z,102433.00
2022-08-11T09:53:36.855Z,102422.13
2022-08-11T09:56:36.615Z,102430.97
2022-08-11T09:59:04.577Z,102426.41
2022-08-11T10:01:34.110Z,102425.41
2022-08-11T10:04:04.506Z,102428.88
2022-08-11T10:06:54.333Z,102427.81
2022-08-11T10:09:24.203Z,102427.81
2022-08-11T10:11:57.870Z,102429.56
2022-08-11T10:14:46.373Z,102425.03
2022-08-11T10:17:15.210Z,102414.91
2022-08-11T10:19:42.576Z,102419.47
2022-08-11T10:22:27.960Z,102417.56
2022-08-11T10:25:15.216Z,102412.13
2022-08-11T10:28:28.237Z,102415.59
2022-08-11T10:30:54.338Z,102411.06
2022-08-11T10:33:41.749Z,102404.66
2022-08-11T10:36:24.726Z,102409.16
2022-08-11T10:38:52.410Z,102398.22
2022-08-11T10:41:38.025Z,102401.72
2022-08-11T10:44:24.666Z,102403.56
2022-08-11T10:47:10.771Z,102397.03
2022-08-11T10:49:37.740Z,102401.50
2022-08-11T10:52:23.032Z,102394.28
2022-08-11T10:55:08.679Z,102391.50
2022-08-11T10:58:04.987Z,102395.94
2022-08-11T11:00:32.784Z,102395.88
2022-08-11T11:03:22.171Z,102395.59
2022-08-11T11:06:27.401Z,102390.09
2022-08-11T11:08:57.746Z,102391.09
2022-08-11T11:11:48.203Z,102383.66
2022-08-11T11:14:46.085Z,102385.31
2022-08-11T11:17:34.351Z,102377.06
2022-08-11T11:20:03.309Z,102382.50
2022-08-11T11:22:40.436Z,102390.53
2022-08-11T11:25:20.855Z,102385.06
2022-08-11T11:28:12.127Z,102378.53
2022-08-11T11:30:51.506Z,102372.09
2022-08-11T11:34:12.141Z,102380.13
2022-08-11T11:36:48.588Z,102370.81
2022-08-11T11:39:19.335Z,102376.19
2022-08-11T11:41:46.174Z,102370.75
2022-08-11T11:44:13.661Z,102368.81
2022-08-11T11:46:40.832Z,102375.94
2022-08-11T11:49:15.312Z,102383.03
2022-08-11T11:51:43.779Z,102372.94
2022-08-11T11:54:14.671Z,102370.16
2022-08-11T11:56:42.043Z,102365.38
2022-08-11T11:59:27.612Z,102366.16
2022-08-11T12:01:55.101Z,102364.16
2022-08-11T12:04:22.311Z,102365.03
2022-08-11T12:06:49.291Z,102362.16
2022-08-11T12:09:18.409Z,102365.81
2022-08-11T12:12:04.164Z,102356.63
2022-08-11T12:14:31.000Z,102354.81
2022-08-11T12:16:57.771Z,102358.19
2022-08-11T12:19:26.179Z,102356.41
2022-08-11T12:22:14.289Z,102358.19
2022-08-11T12:24:59.809Z,102362.50
2022-08-11T12:27:27.625Z,102354.41
2022-08-11T12:30:03.756Z,102351.59
2022-08-11T12:32:32.306Z,102354.16
2022-08-11T12:34:59.109Z,102346.06
2022-08-11T12:37:30.582Z,102348.72
2022-08-11T12:40:42.956Z,102354.06
2022-08-11T12:43:37.344Z,102336.78
2022-08-11T12:46:16.346Z,102335.47
2022-08-11T12:49:07.096Z,102331.78
2022-08-11T12:52:11.127Z,102331.03
2022-08-11T12:54:42.477Z,102328.13
2022-08-11T12:58:01.470Z,102330.63
2022-08-11T13:00:46.990Z,102327.88
2022-08-11T13:03:32.595Z,102334.03
2022-08-11T13:06:02.640Z,102329.66
2022-08-11T13:08:33.516Z,102325.75
2022-08-11T13:11:19.663Z,102329.06
2022-08-11T13:13:53.809Z,102320.91
2022-08-11T13:16:25.674Z,102323.06
2022-08-11T13:18:53.472Z,102327.28
2022-08-11T13:21:21.487Z,102329.19
2022-08-11T13:24:00.609Z,102319.69
2022-08-11T13:26:47.353Z,102317.19
2022-08-11T13:29:24.756Z,102317.97
2022-08-11T13:31:53.191Z,102319.69
2022-08-11T13:34:20.898Z,102322.50
2022-08-11T13:36:52.073Z,102307.75
2022-08-11T13:39:20.331Z,102315.94
2022-08-11T13:41:48.562Z,102306.81
2022-08-11T13:44:21.636Z,102314.72
2022-08-11T13:46:53.153Z,102314.16
2022-08-11T13:49:21.029Z,102312.13
2022-08-11T13:51:48.326Z,102306.63
2022-08-11T13:54:20.690Z,102302.88
2022-08-11T13:56:49.261Z,102310.22
2022-08-11T13:59:20.334Z,102307.31
2022-08-11T14:02:20.288Z,102306.53
2022-08-11T14:04:52.391Z,102309.09
2022-08-11T14:07:24.793Z,102302.16
2022-08-11T14:09:56.906Z,102309.09
2022-08-11T14:12:45.027Z,102307.25
2022-08-11T14:15:25.111Z,102307.06
2022-08-11T14:18:01.701Z,102302.88
2022-08-11T14:20:50.014Z,102297.28
2022-08-11T14:23:16.886Z,102294.88
2022-08-11T14:26:03.709Z,102301.97
2022-08-11T14:28:37.480Z,102294.56
2022-08-11T14:31:08.476Z,102290.19
2022-08-11T14:33:53.521Z,102293.97
2022-08-11T14:36:24.248Z,102284.72
2022-08-11T14:38:51.045Z,102285.59
2022-08-11T14:41:36.952Z,102286.63
2022-08-11T14:44:22.505Z,102286.63
2022-08-11T14:47:05.694Z,102279.09
2022-08-11T14:50:09.594Z,102291.22
2022-08-11T14:52:50.498Z,102280.91
2022-08-11T14:55:37.180Z,102281.19
2022-08-11T14:58:04.310Z,102279.28
2022-08-11T15:00:32.021Z,102273.94
2022-08-11T15:03:11.726Z,102276.66
2022-08-11T15:05:41.281Z,102281.88
2022-08-11T15:08:09.726Z,102274.69
2022-08-11T15:10:36.704Z,102275.34
2022-08-11T15:13:04.751Z,102276.41
2022-08-11T15:15:50.400Z,102275.72
2022-08-11T15:18:20.000Z,102274.78
2022-08-11T15:21:05.716Z,102271.19
2022-08-11T15:23:50.675Z,102271.78
2022-08-11T15:26:19.816Z,102262.94
2022-08-11T15:29:07.058Z,102262.94
2022-08-11T15:31:53.125Z,102266.34
2022-08-11T15:34:40.943Z,102257.22
2022-08-11T15:37:26.612Z,102260.38
2022-08-11T15:40:32.853Z,102250.88
2022-08-11T15:43:28.417Z,102260.00
2022-08-11T15:46:02.166Z,102249.28
2022-08-11T15:48:31.648Z,102239.22
2022-08-11T15:51:09.194Z,102246.31
2022-08-11T15:53:43.300Z,102249.09
2022-08-11T15:56:11.338Z,102244.41
2022-08-11T15:59:33.742Z,102237.28
2022-08-11T16:02:12.616Z,102229.69
2022-08-11T16:04:44.892Z,102238.69
2022-08-11T16:07:14.900Z,102230.38
2022-08-11T16:09:55.010Z,102233.09
2022-08-11T16:12:29.024Z,102227.53
2022-08-11T16:15:20.216Z,102230.50
2022-08-11T16:17:50.337Z,102229.56
2022-08-11T16:20:22.883Z,102223.88
2022-08-11T16:23:02.084Z,102219.41
2022-08-11T16:27:03.579Z,102232.22
2022-08-11T16:28:20.792Z,102226.75
2022-08-11T16:30:48.365Z,102217.00
2022-08-11T16:33:49.058Z,102226.00
2022-08-11T16:36:22.457Z,102218.66
2022-08-11T16:38:49.610Z,102220.63
2022-08-11T16:41:37.697Z,102205.81
2022-08-11T16:44:36.915Z,102218.50
2022-08-11T16:47:06.510Z,102215.66
2022-08-11T16:49:40.069Z,102219.91
2022-08-11T16:52:11.012Z,102206.94
2022-08-11T16:54:39.889Z,102199.72
2022-08-11T16:57:34.261Z,102207.06
2022-08-11T17:00:07.343Z,102209.38
2022-08-11T17:02:54.308Z,102205.28
2022-08-11T17:05:54.146Z,102209.44
2022-08-11T17:08:56.955Z,102200.81
2022-08-11T17:11:46.539Z,102198.34
2022-08-11T17:14:16.804Z,102206.47
2022-08-11T17:16:45.510Z,102203.81
2022-08-11T17:19:14.575Z,102196.31
2022-08-11T17:22:02.230Z,102202.16
2022-08-11T17:24:31.601Z,102199.81
2022-08-11T17:26:59.801Z,102191.72
2022-08-11T17:29:54.026Z,102187.44
2022-08-11T17:32:56.206Z,102187.16
2022-08-11T17:35:35.407Z,102181.84
2022-08-11T17:38:21.912Z,102198.59
2022-08-11T17:41:18.674Z,102182.91
2022-08-11T17:44:09.294Z,102180.47
2022-08-11T17:46:54.487Z,102174.31
2022-08-11T17:49:21.466Z,102178.81
2022-08-11T17:52:08.569Z,102182.66
2022-08-11T17:54:55.476Z,102179.09
2022-08-11T17:57:47.036Z,102178.34
2022-08-11T18:00:14.689Z,102181.31
2022-08-11T18:03:02.074Z,102178.78
2022-08-11T18:05:31.226Z,102182.19
2022-08-11T18:08:18.133Z,102180.00
2022-08-11T18:11:04.212Z,102166.66
2022-08-11T18:13:51.905Z,102168.53
2022-08-11T18:16:38.218Z,102164.84
2022-08-11T18:19:24.792Z,102165.91
2022-08-11T18:22:14.833Z,102167.69
2022-08-11T18:25:07.324Z,102172.31
2022-08-11T18:27:53.531Z,102159.31
2022-08-11T18:30:38.702Z,102173.03
2022-08-11T18:33:50.433Z,102166.94
2022-08-11T18:36:33.060Z,102170.59
2022-08-11T18:39:18.858Z,102168.56
2022-08-11T18:42:04.867Z,102173.16
2022-08-11T18:44:51.473Z,102166.81
2022-08-11T18:47:39.153Z,102170.59
2022-08-11T18:50:34.072Z,102176.06
2022-08-11T18:53:25.537Z,102168.06
2022-08-11T18:56:12.166Z,102176.22
2022-08-11T18:59:00.284Z,102181.69
2022-08-11T19:01:46.272Z,102179.06
2022-08-11T19:04:32.044Z,102178.88
2022-08-11T19:07:24.721Z,102190.53
2022-08-11T19:10:10.373Z,102183.47
2022-08-11T19:12:59.987Z,102186.09
2022-08-11T19:15:45.620Z,102189.00
2022-08-11T19:18:40.402Z,102192.56
2022-08-11T19:21:26.630Z,102194.47
2022-08-11T19:24:15.158Z,102200.59
2022-08-11T19:27:00.783Z,102203.50
2022-08-11T19:30:06.943Z,102203.59
2022-08-11T19:32:52.275Z,102203.69
2022-08-11T19:35:37.845Z,102198.00
2022-08-11T19:38:22.940Z,102214.72
2022-08-11T19:41:09.065Z,102209.72
2022-08-11T19:43:55.741Z,102201.16
2022-08-11T19:46:41.827Z,102204.06
2022-08-11T19:49:28.423Z,102207.25
2022-08-11T19:52:15.156Z,102209.44
2022-08-11T19:55:00.852Z,102202.03
2022-08-11T19:57:46.455Z,102207.88
2022-08-11T20:00:35.186Z,102211.47
2022-08-11T20:03:23.012Z,102218.88
2022-08-11T20:06:08.549Z,102220.28
2022-08-11T20:08:58.654Z,102217.81
2022-08-11T20:11:45.351Z,102222.06
2022-08-11T20:14:31.399Z,102213.94
2022-08-11T20:17:17.627Z,102214.97
2022-08-11T20:20:02.816Z,102216.78
2022-08-11T20:22:49.461Z,102223.06
2022-08-11T20:25:35.927Z,102229.69
2022-08-11T20:28:23.153Z,102225.09
2022-08-11T20:31:08.681Z,102232.44
2022-08-11T20:33:54.739Z,102235.34
2022-08-11T20:36:39.894Z,102232.84
2022-08-11T20:39:25.537Z,102229.97
2022-08-11T20:42:11.857Z,102235.75
2022-08-11T20:44:58.017Z,102231.94
2022-08-11T20:47:59.821Z,102235.50
2022-08-11T20:50:46.554Z,102230.16
2022-08-11T20:53:35.862Z,102238.56
2022-08-11T20:56:28.524Z,102239.50
2022-08-11T20:59:21.879Z,102245.59
2022-08-11T21:02:09.761Z,102240.25
2022-08-11T21:04:57.066Z,102234.94
2022-08-11T21:07:44.744Z,102247.13
2022-08-11T21:10:44.678Z,102241.72
2022-08-11T21:13:32.432Z,102241.88
2022-08-11T21:16:25.926Z,102240.06
2022-08-11T21:19:16.093Z,102241.19
2022-08-11T21:22:03.607Z,102240.41
2022-08-11T21:24:50.893Z,102240.25
2022-08-11T21:27:37.507Z,102233.00
2022-08-11T21:30:23.265Z,102238.66
2022-08-11T21:33:09.306Z,102229.03
2022-08-11T21:35:54.486Z,102227.16
2022-08-11T21:38:39.557Z,102236.84
2022-08-11T21:41:25.644Z,102224.47
2022-08-11T21:44:10.742Z,102235.72
2022-08-11T21:46:57.224Z,102229.81
2022-08-11T21:49:43.829Z,102229.09
2022-08-11T21:52:29.148Z,102234.78
2022-08-11T21:55:14.703Z,102238.38
2022-08-11T21:58:00.112Z,102244.69
2022-08-11T22:00:45.161Z,102236.75
2022-08-11T22:03:30.395Z,102233.03
2022-08-11T22:06:21.764Z,102240.38
2022-08-11T22:09:06.854Z,102239.38
2022-08-11T22:12:33.544Z,102239.63
2022-08-11T22:14:57.720Z,102241.41
2022-08-11T22:17:42.906Z,102239.94
2022-08-11T22:20:30.417Z,102241.97
2022-08-11T22:23:17.140Z,102231.22
2022-08-11T22:26:07.318Z,102238.16
2022-08-11T22:28:56.714Z,102242.19
2022-08-11T22:31:42.265Z,102233.28
2022-08-11T22:34:27.910Z,102235.06
2022-08-11T22:37:27.195Z,102231.53
2022-08-11T22:40:13.150Z,102234.34
2022-08-11T22:42:58.114Z,102234.47
2022-08-11T22:45:43.445Z,102228.03
2022-08-11T22:48:29.733Z,102231.75
2022-08-11T22:51:16.283Z,102225.44
2022-08-11T22:54:01.835Z,102233.59
2022-08-11T22:56:49.050Z,102228.06
2022-08-11T22:59:38.700Z,102222.53
2022-08-11T23:02:25.232Z,102218.16
2022-08-11T23:05:10.950Z,102222.94
2022-08-11T23:07:56.617Z,102223.81
2022-08-11T23:10:42.768Z,102218.97
2022-08-11T23:13:28.458Z,102222.81
2022-08-11T23:16:14.681Z,102226.69
2022-08-11T23:19:00.057Z,102228.38
2022-08-11T23:21:46.422Z,102224.72
2022-08-11T23:24:31.871Z,102222.81
2022-08-11T23:27:18.537Z,102225.75
2022-08-11T23:30:03.588Z,102222.19
2022-08-11T23:32:49.793Z,102214.16
2022-08-11T23:35:40.193Z,102225.88
2022-08-11T23:38:37.896Z,102220.47
2022-08-11T23:41:22.992Z,102224.16
2022-08-11T23:44:08.473Z,102224.09
2022-08-11T23:46:54.140Z,102220.66
2022-08-11T23:49:39.377Z,102222.38
2022-08-11T23:52:24.894Z,102221.38
2022-08-11T23:55:10.500Z,102216.25
2022-08-11T23:57:55.735Z,102214.53
